LDRI

Rijeka Airport

Rijeka, Croatia
TAF LDRI 242325Z 2500/2600 VRB05KT CAVOK TX17/2513Z TN09/2523Z TEMPO 2509/2515 06012KT
Issued Valid From Valid To
Sep-24 @ 23:25 UTC
(26 minutes ago)
Sep-25 @ 00:00 UTC
(in 9 minutes)
Sep-26 @ 00:00 UTC
(in 24 hours)
Sep-25 @ 00:00 to Sep-26 @ 00:00
TAF LDRI 242325Z 2500/2600 VRB05KT CAVOK TX17/2513Z TN09/2523Z
Wind Visibility Clouds
Variable at 5 knots 10,000+ meters
  • No significant clouds
Temporary Sep-25 @ 09:00 to Sep-25 @ 15:00
TEMPO 2509/2515 06012KT
Wind
60° at 12 knots
TAF LDRI 242325Z 2500/2600 VRB05KT CAVOK TX17/2513Z TN09/2523Z TEMPO 2509/2515 06012KT
Issued Sep-24 @ 23:25 UTC
(26 minutes ago)
Valid From Sep-25 @ 00:00 UTC
(in 9 minutes)
Valid To Sep-26 @ 00:00 UTC
(in 24 hours)
Sep-25 @ 00:00 - Sep-26 @ 00:00
Wind Visibility
Variable at 5 knots 10,000+ meters
Clouds
  • No significant clouds
Temporary Sep-25 @ 09:00 - Sep-25 @ 15:00
Wind
60° at 12 knots